Time;durP1;ratioP1;P1;durP2;ratioP2;P2;SDS_P1;SDS_P2;PMS_P1;PMS_P2;Temp;Humidity;BMP_temperature;BMP_pressure;BME280_temperature;BME280_humidity;BME280_pressure;Samples;Min_cycle;Max_cycle;Signal;HPM_P1;HPM_P2
2022/01/29 00:01:49;;;;;;;24.20;6.30;;;;;;;3.61;100.00;101740.09;7395336;19;20865;-45
2022/01/29 00:04:21;;;;;;;21.17;6.50;;;;;;;3.64;100.00;101742.00;7397154;19;20894;-48
2022/01/29 00:06:50;;;;;;;19.90;7.40;;;;;;;3.64;100.00;101730.13;7394315;19;20406;-44
2022/01/29 00:09:20;;;;;;;19.67;6.23;;;;;;;3.68;100.00;101725.28;7397618;19;20375;-47
2022/01/29 00:11:49;;;;;;;32.40;10.10;;;;;;;3.70;100.00;101722.06;7395337;19;20470;-47
2022/01/29 00:14:19;;;;;;;40.00;11.73;;;;;;;3.70;100.00;101714.41;7399593;19;20421;-49
2022/01/29 00:16:48;;;;;;;25.97;8.77;;;;;;;3.70;100.00;101711.88;7393206;19;20459;-49
2022/01/29 00:19:20;;;;;;;23.00;9.83;;;;;;;3.70;100.00;101695.69;7396087;19;20412;-46
2022/01/29 00:21:49;;;;;;;21.37;8.03;;;;;;;3.70;100.00;101690.56;7394919;19;20391;-46
2022/01/29 00:24:19;;;;;;;37.97;13.13;;;;;;;3.72;100.00;101694.13;7396522;19;20403;-50
2022/01/29 00:26:48;;;;;;;30.93;14.23;;;;;;;3.75;100.00;101679.97;7393452;19;20498;-49
2022/01/29 00:29:21;;;;;;;37.60;13.33;;;;;;;3.73;100.00;101672.94;7396777;19;20384;-50
2022/01/29 00:31:51;;;;;;;29.23;12.43;;;;;;;3.73;100.00;101676.41;7394692;19;20410;-47
2022/01/29 00:34:23;;;;;;;34.90;11.80;;;;;;;3.72;100.00;101668.59;7396463;19;20364;-50
2022/01/29 00:36:53;;;;;;;34.93;12.13;;;;;;;3.74;100.00;101662.88;7392901;19;20390;-49
2022/01/29 00:39:22;;;;;;;32.90;13.87;;;;;;;3.75;100.00;101646.78;7395682;19;20704;-46
2022/01/29 00:41:52;;;;;;;33.33;11.47;;;;;;;3.77;100.00;101659.69;7383140;19;20426;-45
2022/01/29 00:44:41;;;;;;;34.90;14.47;;;;;;;3.75;100.00;101638.25;7396142;19;20379;-46
2022/01/29 00:47:11;;;;;;;30.33;11.40;;;;;;;3.74;100.00;101622.03;7393319;19;20475;-46
2022/01/29 00:49:43;;;;;;;37.77;15.47;;;;;;;3.74;100.00;101616.03;7400081;19;20692;-47
2022/01/29 00:52:13;;;;;;;25.07;9.57;;;;;;;3.71;100.00;101613.22;7400489;19;20924;-47
2022/01/29 00:54:44;;;;;;;38.60;14.47;;;;;;;3.74;100.00;101605.84;7403264;19;20388;-46
2022/01/29 00:57:14;;;;;;;32.67;12.10;;;;;;;3.67;100.00;101595.84;7388368;19;20402;-45
2022/01/29 00:59:43;;;;;;;30.83;10.00;;;;;;;3.61;100.00;101593.69;7402199;19;20748;-45
2022/01/29 01:02:13;;;;;;;31.83;12.00;;;;;;;3.55;100.00;101586.44;7400944;19;20499;-45
2022/01/29 01:04:45;;;;;;;28.73;7.30;;;;;;;3.53;100.00;101589.63;7403412;19;20395;-46
2022/01/29 01:07:15;;;;;;;50.23;17.40;;;;;;;3.51;100.00;101581.81;7400133;19;20419;-45
2022/01/29 01:09:47;;;;;;;36.87;14.37;;;;;;;3.50;100.00;101565.59;7404018;19;20363;-45
2022/01/29 01:12:16;;;;;;;38.90;15.40;;;;;;;3.46;100.00;101562.69;7402427;19;20439;-45
2022/01/29 01:14:46;;;;;;;63.57;22.70;;;;;;;3.44;100.00;101557.44;7402124;19;20383;-47
2022/01/29 01:17:15;;;;;;;30.10;13.50;;;;;;;3.44;100.00;101543.81;7398854;19;20632;-47
2022/01/29 01:19:47;;;;;;;45.17;18.13;;;;;;;3.44;100.00;101525.94;7401738;19;20384;-46
2022/01/29 01:22:17;;;;;;;35.73;14.07;;;;;;;3.41;100.00;101534.25;7402136;19;20419;-46
2022/01/29 01:24:47;;;;;;;59.53;17.33;;;;;;;3.42;100.00;101513.06;7401550;19;20396;-46
2022/01/29 01:27:16;;;;;;;41.73;14.83;;;;;;;3.38;100.00;101514.47;7399877;19;20961;-47
2022/01/29 01:29:46;;;;;;;56.13;21.70;;;;;;;3.42;100.00;101509.59;7403284;19;20377;-46
2022/01/29 01:32:16;;;;;;;40.23;16.87;;;;;;;3.44;100.00;101503.00;7399876;19;20411;-47
2022/01/29 01:34:52;;;;;;;51.10;17.57;;;;;;;3.42;100.00;101504.50;7402202;19;20682;-46
2022/01/29 01:37:33;;;;;;;65.40;19.80;;;;;;;3.43;100.00;101502.09;7399278;19;20408;-47
2022/01/29 01:40:03;;;;;;;46.67;19.90;;;;;;;3.52;100.00;101507.06;7401106;19;20426;-45
2022/01/29 01:42:32;;;;;;;74.40;25.17;;;;;;;3.82;100.00;101496.66;7399984;19;20416;-48
2022/01/29 01:45:07;;;;;;;51.40;19.67;;;;;;;3.55;100.00;101494.56;7401853;19;20406;-45
2022/01/29 01:47:36;;;;;;;44.30;17.97;;;;;;;3.47;100.00;101490.47;7400257;19;20886;-46
2022/01/29 01:50:10;;;;;;;65.63;24.20;;;;;;;3.46;100.00;101486.13;7401771;19;20394;-45
2022/01/29 01:52:40;;;;;;;61.90;21.13;;;;;;;3.47;100.00;101457.28;7399312;19;20386;-51
2022/01/29 01:55:09;;;;;;;50.93;20.13;;;;;;;3.45;100.00;101443.53;7400977;19;20382;-48
2022/01/29 01:57:39;;;;;;;60.43;26.50;;;;;;;3.44;100.00;101432.41;7399812;19;20407;-49
2022/01/29 02:00:10;;;;;;;70.13;24.37;;;;;;;3.45;100.00;101421.47;7400672;19;20481;-49
2022/01/29 02:02:40;;;;;;;49.93;20.43;;;;;;;3.46;100.00;101409.59;7398707;19;20416;-50
2022/01/29 02:05:13;;;;;;;49.60;20.40;;;;;;;3.49;100.00;101397.09;7400904;19;20695;-50
2022/01/29 02:07:42;;;;;;;59.80;23.73;;;;;;;3.46;100.00;101384.06;7399404;19;20851;-51
2022/01/29 02:10:13;;;;;;;63.67;27.27;;;;;;;3.47;100.00;101390.97;7404235;19;20404;-45
2022/01/29 02:12:50;;;;;;;64.23;27.40;;;;;;;3.48;100.00;101382.53;7399215;19;20394;-46
2022/01/29 02:15:21;;;;;;;60.13;21.07;;;;;;;3.50;100.00;101381.00;7400124;19;20399;-46
2022/01/29 02:17:51;;;;;;;63.77;27.37;;;;;;;3.51;100.00;101368.38;7399155;19;20415;-46
2022/01/29 02:20:26;;;;;;;45.83;20.50;;;;;;;3.51;100.00;101362.38;7399583;19;20398;-46
2022/01/29 02:23:00;;;;;;;75.67;26.70;;;;;;;3.52;100.00;101346.28;7398796;19;20422;-46
2022/01/29 02:25:34;;;;;;;67.80;25.20;;;;;;;3.53;100.00;101339.53;7400097;19;20855;-45
2022/01/29 02:28:05;;;;;;;86.60;23.07;;;;;;;3.55;100.00;101328.69;7398934;19;20411;-45
2022/01/29 02:30:37;;;;;;;71.27;25.40;;;;;;;3.57;100.00;101321.13;7400498;19;20459;-46
2022/01/29 02:33:10;;;;;;;73.60;25.93;;;;;;;3.61;100.00;101323.16;7398033;19;20447;-47
2022/01/29 02:35:41;;;;;;;70.23;26.03;;;;;;;3.61;100.00;101321.53;7399691;19;20415;-45
2022/01/29 02:38:14;;;;;;;93.57;34.00;;;;;;;3.63;100.00;101309.75;7398218;19;20669;-45
2022/01/29 02:40:47;;;;;;;53.83;20.33;;;;;;;3.61;100.00;101297.66;7396742;19;20417;-47
2022/01/29 02:43:19;;;;;;;84.03;25.83;;;;;;;3.60;100.00;101296.75;7398279;19;20550;-48
2022/01/29 02:45:51;;;;;;;60.07;21.57;;;;;;;3.64;100.00;101283.47;7399140;19;20476;-48
2022/01/29 02:48:21;;;;;;;98.90;36.97;;;;;;;3.69;100.00;101285.50;7397526;19;20423;-49
2022/01/29 02:50:52;;;;;;;67.30;22.60;;;;;;;3.65;100.00;101286.91;7400090;19;20401;-46
2022/01/29 02:53:24;;;;;;;86.60;33.20;;;;;;;3.70;100.00;101280.50;7397913;19;20439;-47
2022/01/29 02:55:53;;;;;;;73.07;25.47;;;;;;;3.73;100.00;101267.06;7398843;19;20413;-47
2022/01/29 02:58:23;;;;;;;67.30;25.67;;;;;;;3.74;100.00;101263.78;7397357;19;20416;-47
2022/01/29 03:00:52;;;;;;;37.00;17.97;;;;;;;3.77;100.00;101266.56;7398523;19;20494;-47
2022/01/29 03:03:22;;;;;;;52.50;19.80;;;;;;;3.74;100.00;101276.53;7398044;19;20530;-46
2022/01/29 03:05:52;;;;;;;74.17;25.30;;;;;;;3.78;100.00;101256.47;7398416;19;20432;-47
2022/01/29 03:08:24;;;;;;;87.43;26.60;;;;;;;3.82;100.00;101251.59;7397505;19;20439;-49
2022/01/29 03:10:53;;;;;;;62.50;24.43;;;;;;;3.82;100.00;101254.13;7398241;19;20388;-47
2022/01/29 03:13:22;;;;;;;83.73;28.93;;;;;;;3.84;100.00;101253.50;7395460;19;20414;-47
2022/01/29 03:15:52;;;;;;;64.53;24.20;;;;;;;3.83;100.00;101244.06;7397804;19;20492;-46
2022/01/29 03:18:22;;;;;;;60.57;23.47;;;;;;;3.86;100.00;101243.41;7396929;19;20415;-47
2022/01/29 03:20:51;;;;;;;32.50;14.07;;;;;;;3.85;100.00;101234.84;7398024;19;20384;-46
2022/01/29 03:23:23;;;;;;;54.10;20.33;;;;;;;3.88;100.00;101229.09;7396425;19;20412;-48
2022/01/29 03:25:53;;;;;;;48.07;16.97;;;;;;;3.88;100.00;101216.31;7402592;19;20426;-46
2022/01/29 03:28:22;;;;;;;56.23;20.37;;;;;;;3.87;100.00;101205.22;7396835;19;20409;-52
2022/01/29 03:30:52;;;;;;;82.97;28.67;;;;;;;3.91;100.00;101220.00;7398678;19;20368;-47
2022/01/29 03:33:21;;;;;;;45.83;17.87;;;;;;;3.94;100.00;101211.69;7396579;19;20422;-48
2022/01/29 03:35:52;;;;;;;42.30;15.63;;;;;;;3.92;100.00;101197.91;7397368;19;20495;-48
2022/01/29 03:38:24;;;;;;;67.03;24.00;;;;;;;3.95;100.00;101198.13;7396112;19;20393;-52
2022/01/29 03:40:56;;;;;;;77.60;26.03;;;;;;;3.98;100.00;101187.25;7397476;19;20384;-50
2022/01/29 03:43:33;;;;;;;61.80;20.23;;;;;;;3.99;100.00;101179.72;7396750;19;20420;-49
2022/01/29 03:46:03;;;;;;;62.37;24.63;;;;;;;4.02;100.00;101173.97;7397036;19;20446;-46
2022/01/29 03:48:32;;;;;;;51.23;20.07;;;;;;;4.03;100.00;101174.09;7395875;19;20874;-50
2022/01/29 03:51:01;;;;;;;62.27;20.37;;;;;;;4.08;100.00;101169.31;7398029;19;20398;-49
2022/01/29 03:53:34;;;;;;;44.07;17.00;;;;;;;4.08;100.00;101176.97;7399597;19;20505;-48
2022/01/29 03:56:03;;;;;;;93.87;35.03;;;;;;;4.11;100.00;101169.53;7396901;19;20511;-49
2022/01/29 03:58:33;;;;;;;55.47;17.33;;;;;;;4.10;100.00;101156.66;7395594;19;20406;-48
2022/01/29 04:01:02;;;;;;;60.63;18.27;;;;;;;4.14;100.00;101159.56;7401240;19;20409;-47
2022/01/29 04:03:32;;;;;;;67.17;24.30;;;;;;;4.16;100.00;101157.13;7395805;19;20455;-47
2022/01/29 04:06:01;;;;;;;51.93;17.90;;;;;;;4.16;100.00;101147.78;7396489;19;20436;-49
2022/01/29 04:08:40;;;;;;;54.37;21.13;;;;;;;4.12;100.00;101130.47;7395120;19;20868;-51
2022/01/29 04:11:11;;;;;;;51.87;19.43;;;;;;;4.14;100.00;101133.09;7397825;19;20636;-49
2022/01/29 04:13:41;;;;;;;79.80;24.87;;;;;;;4.14;100.00;101136.56;7395501;19;20419;-53
2022/01/29 04:16:11;;;;;;;63.90;21.50;;;;;;;4.14;100.00;101126.34;7395985;19;20488;-48
2022/01/29 04:18:41;;;;;;;53.50;19.70;;;;;;;4.16;100.00;101122.22;7395821;19;20876;-48
2022/01/29 04:21:12;;;;;;;69.73;23.70;;;;;;;4.18;100.00;101120.69;7396677;19;20938;-50
2022/01/29 04:23:46;;;;;;;85.73;30.83;;;;;;;4.21;100.00;101108.91;7396708;19;20489;-51
2022/01/29 04:26:15;;;;;;;50.13;20.43;;;;;;;4.19;100.00;101122.47;7402049;19;20431;-48
2022/01/29 04:28:46;;;;;;;75.63;27.03;;;;;;;4.24;100.00;101114.25;7403900;19;20750;-51
2022/01/29 04:31:18;;;;;;;39.17;14.57;;;;;;;4.25;100.00;101105.81;7405564;19;20395;-52
2022/01/29 04:33:48;;;;;;;52.87;18.10;;;;;;;4.26;100.00;101107.59;7404055;19;20406;-50
2022/01/29 04:36:17;;;;;;;65.70;25.50;;;;;;;4.31;100.00;101106.28;7400395;19;20419;-49
2022/01/29 04:38:49;;;;;;;64.23;23.27;;;;;;;4.29;100.00;101095.94;7408292;19;20852;-50
2022/01/29 04:41:21;;;;;;;58.57;21.80;;;;;;;4.31;100.00;101093.50;7401654;19;20388;-49
2022/01/29 04:43:51;;;;;;;66.77;21.23;;;;;;;4.30;100.00;101089.13;7403681;19;20389;-54
2022/01/29 04:46:20;;;;;;;46.37;17.27;;;;;;;4.31;100.00;101075.63;7400335;19;20435;-53
2022/01/29 04:48:50;;;;;;;51.90;20.50;;;;;;;4.31;100.00;101086.69;7404457;19;20423;-47
2022/01/29 04:51:19;;;;;;;55.47;19.93;;;;;;;4.37;100.00;101076.06;7402320;19;20382;-51
2022/01/29 04:53:51;;;;;;;49.57;17.50;;;;;;;4.38;100.00;101062.50;7403657;19;20377;-52
2022/01/29 04:56:21;;;;;;;58.43;18.83;;;;;;;4.38;100.00;101070.16;7400290;19;20420;-51
2022/01/29 04:58:51;;;;;;;79.07;27.47;;;;;;;4.40;100.00;101063.50;7403058;19;20455;-52
2022/01/29 05:01:20;;;;;;;78.47;29.33;;;;;;;4.43;100.00;101045.84;7401147;19;20391;-53
2022/01/29 05:03:50;;;;;;;59.10;18.67;;;;;;;4.45;100.00;101054.50;7403709;19;20393;-51
2022/01/29 05:06:20;;;;;;;63.00;25.20;;;;;;;4.46;100.00;101038.38;7403148;19;20493;-53
2022/01/29 05:08:52;;;;;;;51.80;17.47;;;;;;;4.48;100.00;101032.47;7402763;19;20859;-55
2022/01/29 05:11:21;;;;;;;43.73;16.30;;;;;;;4.52;100.00;101029.38;7401959;19;20456;-54
2022/01/29 05:13:51;;;;;;;51.63;19.03;;;;;;;4.52;100.00;101032.78;7402721;19;20385;-53
2022/01/29 05:16:42;;;;;;;79.73;25.93;;;;;;;4.54;100.00;101022.69;7399460;19;20413;-50
2022/01/29 05:27:20;;;;;;;64.13;21.97;;;;;;;4.67;100.00;100993.78;7399677;19;20472;-53
2022/01/29 05:29:49;;;;;;;29.67;11.20;;;;;;;4.68;100.00;100991.31;7403000;19;20446;-52
2022/01/29 05:32:22;;;;;;;35.80;14.50;;;;;;;4.73;100.00;100969.50;7400762;19;20426;-54
2022/01/29 05:34:51;;;;;;;39.07;15.83;;;;;;;4.75;100.00;100978.94;7405290;19;20404;-51
2022/01/29 05:37:41;;;;;;;68.43;25.37;;;;;;;4.78;100.00;100976.63;7399264;19;20427;-50
2022/01/29 05:40:14;;;;;;;45.83;19.00;;;;;;;4.81;100.00;100964.03;7402740;19;20381;-51
2022/01/29 05:42:43;;;;;;;52.47;23.10;;;;;;;4.83;100.00;100965.03;7400019;19;20472;-50
2022/01/29 05:45:13;;;;;;;54.47;21.00;;;;;;;4.86;100.00;100949.91;7401829;19;20393;-51
2022/01/29 05:47:43;;;;;;;45.07;16.50;;;;;;;4.89;100.00;100944.09;7399738;19;20415;-51
2022/01/29 05:50:13;;;;;;;59.27;21.63;;;;;;;4.90;100.00;100951.88;7406528;19;20728;-51
2022/01/29 05:52:43;;;;;;;55.40;19.33;;;;;;;4.93;100.00;100946.97;7399464;19;20408;-51
2022/01/29 05:55:15;;;;;;;46.77;17.50;;;;;;;4.95;100.00;100931.72;7405632;19;20689;-50
2022/01/29 05:57:44;;;;;;;61.43;18.87;;;;;;;4.98;100.00;100925.16;7399172;19;20428;-50
2022/01/29 06:00:15;;;;;;;39.70;17.83;;;;;;;5.00;100.00;100931.28;7401946;19;20414;-51
2022/01/29 06:02:45;;;;;;;52.10;18.90;;;;;;;5.06;100.00;100935.91;7399238;19;20421;-52
2022/01/29 06:05:14;;;;;;;40.70;17.23;;;;;;;5.08;100.00;100925.78;7401106;19;20608;-50
2022/01/29 06:07:44;;;;;;;65.97;26.40;;;;;;;5.10;100.00;100924.22;7399402;19;20416;-50
2022/01/29 06:10:16;;;;;;;40.73;17.43;;;;;;;5.14;100.00;100923.63;7401391;19;20712;-51
2022/01/29 06:12:45;;;;;;;37.67;16.30;;;;;;;5.16;100.00;100901.59;7398334;19;20417;-53
2022/01/29 06:15:15;;;;;;;40.77;17.43;;;;;;;5.19;100.00;100901.81;7400293;19;20395;-49
2022/01/29 06:17:44;;;;;;;42.63;17.77;;;;;;;5.21;100.00;100899.34;7398839;19;20422;-50
2022/01/29 06:20:14;;;;;;;24.90;12.63;;;;;;;5.24;100.00;100890.19;7401327;19;20402;-50
2022/01/29 06:22:43;;;;;;;44.27;19.23;;;;;;;5.30;100.00;100892.28;7398277;19;20402;-49
2022/01/29 06:25:16;;;;;;;34.03;14.90;;;;;;;5.31;100.00;100872.66;7400271;19;20394;-53
2022/01/29 06:27:45;;;;;;;35.03;17.43;;;;;;;5.33;100.00;100881.34;7398934;19;20415;-52
2022/01/29 06:30:15;;;;;;;39.07;17.20;;;;;;;5.36;100.00;100872.19;7400865;19;20398;-50
2022/01/29 06:32:45;;;;;;;27.57;11.47;;;;;;;5.39;100.00;100863.84;7400800;19;20721;-51
2022/01/29 06:35:15;;;;;;;28.63;12.33;;;;;;;5.43;100.00;100860.66;7403550;19;20664;-52
2022/01/29 06:37:44;;;;;;;28.33;13.27;;;;;;;5.44;100.00;100865.00;7402350;19;20822;-51
2022/01/29 06:40:16;;;;;;;43.23;17.60;;;;;;;5.50;100.00;100860.28;7400667;19;20395;-52
2022/01/29 06:42:46;;;;;;;40.40;14.70;;;;;;;5.50;100.00;100864.53;7397424;19;20442;-50
2022/01/29 06:45:16;;;;;;;33.07;12.43;;;;;;;5.53;100.00;100864.69;7399112;19;20393;-50
2022/01/29 06:47:45;;;;;;;40.57;16.53;;;;;;;5.58;100.00;100867.59;7397345;19;20901;-50
2022/01/29 06:50:15;;;;;;;32.47;13.57;;;;;;;5.61;100.00;100843.06;7399340;19;20366;-52
2022/01/29 06:52:44;;;;;;;34.47;12.83;;;;;;;5.66;100.00;100856.16;7398203;19;20420;-55
2022/01/29 06:55:16;;;;;;;49.97;20.40;;;;;;;5.69;100.00;100861.44;7399607;19;20399;-53
2022/01/29 06:57:46;;;;;;;27.43;10.53;;;;;;;5.71;100.00;100857.31;7397279;19;20432;-53
2022/01/29 07:00:35;;;;;;;52.70;20.67;;;;;;;5.74;100.00;100860.06;7400889;19;20400;-55
2022/01/29 07:03:05;;;;;;;60.13;22.97;;;;;;;5.77;100.00;100850.03;7397621;19;20462;-50
2022/01/29 07:05:35;;;;;;;63.43;22.77;;;;;;;5.78;100.00;100856.03;7398554;19;21147;-51
2022/01/29 07:08:04;;;;;;;30.67;14.03;;;;;;;5.79;100.00;100848.44;7397242;19;20415;-53
2022/01/29 07:10:37;;;;;;;39.10;16.17;;;;;;;5.80;100.00;100845.09;7399208;19;20409;-51
2022/01/29 07:13:08;;;;;;;47.43;21.20;;;;;;;5.86;100.00;100851.38;7398482;19;20519;-50
2022/01/29 07:15:39;;;;;;;68.03;24.03;;;;;;;5.89;100.00;100857.59;7398104;19;20407;-51
2022/01/29 07:18:08;;;;;;;67.43;23.40;;;;;;;5.96;100.00;100864.00;7396145;19;20419;-49
2022/01/29 07:20:38;;;;;;;71.27;23.93;;;;;;;6.08;100.00;100856.19;7398667;19;20443;-55
2022/01/29 07:23:07;;;;;;;44.73;16.50;;;;;;;6.05;100.00;100859.44;7395180;19;20434;-53
2022/01/29 07:25:39;;;;;;;103.47;31.10;;;;;;;6.14;100.00;100863.38;7397714;19;20864;-51
2022/01/29 07:28:09;;;;;;;88.27;26.30;;;;;;;6.16;100.00;100864.38;7396746;19;20413;-49
2022/01/29 07:30:38;;;;;;;29.00;10.77;;;;;;;6.10;100.00;100864.84;7398992;19;20383;-50
2022/01/29 07:33:08;;;;;;;69.33;23.40;;;;;;;6.17;100.00;100864.47;7396345;19;20419;-52
2022/01/29 07:35:37;;;;;;;55.07;20.80;;;;;;;6.16;100.00;100862.66;7401457;19;20407;-49
2022/01/29 07:38:07;;;;;;;75.93;21.60;;;;;;;6.21;100.00;100847.59;7398360;19;20510;-50
2022/01/29 07:40:36;;;;;;;33.27;11.80;;;;;;;6.19;100.00;100861.97;7398706;19;20459;-51
2022/01/29 07:43:08;;;;;;;54.07;16.07;;;;;;;6.21;100.00;100848.47;7395522;19;20439;-50
2022/01/29 07:45:38;;;;;;;79.83;25.17;;;;;;;6.22;100.00;100836.56;7401488;19;20418;-50
2022/01/29 07:48:08;;;;;;;41.83;15.40;;;;;;;6.13;100.00;100846.22;7399061;19;20463;-51
2022/01/29 07:50:37;;;;;;;95.90;24.90;;;;;;;6.19;100.00;100824.44;7398307;19;20396;-53
2022/01/29 07:53:07;;;;;;;30.13;11.20;;;;;;;6.21;100.00;100827.09;7396108;19;20876;-52
2022/01/29 07:55:36;;;;;;;31.07;12.57;;;;;;;6.26;100.00;100829.94;7397270;19;20732;-52
2022/01/29 07:58:10;;;;;;;14.97;7.50;;;;;;;6.18;100.00;100826.91;7396275;19;20422;-50
2022/01/29 08:00:39;;;;;;;24.10;10.60;;;;;;;6.25;100.00;100817.91;7408803;19;20418;-52
2022/01/29 08:03:09;;;;;;;20.23;8.07;;;;;;;6.21;100.00;100829.66;7386478;19;20419;-51
2022/01/29 08:05:39;;;;;;;34.70;11.77;;;;;;;6.18;100.00;100801.28;7412321;19;20410;-49
2022/01/29 08:08:16;;;;;;;23.37;9.80;;;;;;;6.20;100.00;100795.44;7410139;19;20685;-51
2022/01/29 08:10:46;;;;;;;25.07;11.83;;;;;;;6.21;100.00;100791.22;7411332;19;20862;-52
2022/01/29 08:13:18;;;;;;;39.17;13.60;;;;;;;6.19;100.00;100774.84;7411872;19;20464;-51
2022/01/29 08:15:47;;;;;;;22.70;11.40;;;;;;;6.22;100.00;100775.06;7413766;19;20423;-55
2022/01/29 08:18:17;;;;;;;16.47;5.70;;;;;;;6.19;100.00;100778.31;7406520;19;20418;-49
2022/01/29 08:20:46;;;;;;;21.17;10.27;;;;;;;6.26;100.00;100779.56;7408995;19;20387;-54
2022/01/29 08:23:16;;;;;;;20.23;10.03;;;;;;;6.24;100.00;100765.78;7406401;19;21010;-54
2022/01/29 08:25:45;;;;;;;18.50;8.67;;;;;;;6.26;100.00;100776.13;7408689;19;20425;-52
2022/01/29 08:28:18;;;;;;;13.87;5.53;;;;;;;6.29;100.00;100758.34;7408296;19;20411;-52
2022/01/29 08:30:47;;;;;;;13.67;7.37;;;;;;;6.21;100.00;100770.72;7410014;19;20379;-50
2022/01/29 08:33:18;;;;;;;17.10;7.47;;;;;;;6.30;100.00;100765.28;7411281;19;20443;-51
2022/01/29 08:35:48;;;;;;;21.10;10.50;;;;;;;6.28;100.00;100752.38;7408649;19;20860;-52
2022/01/29 08:38:17;;;;;;;17.10;7.30;;;;;;;6.29;100.00;100738.75;7407182;19;20498;-55
2022/01/29 08:40:47;;;;;;;16.03;8.17;;;;;;;6.29;100.00;100707.09;7409690;19;20376;-50
2022/01/29 08:43:19;;;;;;;15.97;7.47;;;;;;;6.28;100.00;100723.28;7407452;19;20457;-52
2022/01/29 08:45:49;;;;;;;17.57;9.93;;;;;;;6.37;100.00;100710.13;7409076;19;20474;-49
2022/01/29 08:48:18;;;;;;;11.53;5.10;;;;;;;6.33;100.00;100715.09;7408367;19;20486;-52
2022/01/29 08:50:48;;;;;;;19.17;10.33;;;;;;;6.33;100.00;100704.81;7409647;19;20379;-53
2022/01/29 08:53:19;;;;;;;18.17;7.57;;;;;;;6.35;100.00;100703.22;7407863;19;20482;-54
2022/01/29 08:55:49;;;;;;;17.90;9.73;;;;;;;6.35;100.00;100700.66;7408686;19;20426;-49
2022/01/29 08:58:21;;;;;;;18.30;8.93;;;;;;;6.37;100.00;100694.75;7408566;19;20419;-54
2022/01/29 09:00:50;;;;;;;15.97;7.47;;;;;;;6.43;100.00;100682.28;7409188;19;20459;-52
2022/01/29 09:03:23;;;;;;;9.47;6.13;;;;;;;6.32;100.00;100676.53;7408932;19;20447;-53
2022/01/29 09:05:52;;;;;;;24.10;10.10;;;;;;;6.34;100.00;100688.66;7409147;19;20419;-49
2022/01/29 09:08:22;;;;;;;21.43;9.93;;;;;;;6.37;100.00;100684.50;7405649;19;20514;-52
2022/01/29 09:10:56;;;;;;;16.50;8.23;;;;;;;6.34;100.00;100674.94;7409350;19;20403;-54
2022/01/29 09:13:29;;;;;;;14.23;6.67;;;;;;;6.37;100.00;100670.00;7379570;19;20442;-49
2022/01/29 09:16:00;;;;;;;12.83;6.23;;;;;;;6.38;100.00;100678.56;7402230;19;20426;-49
2022/01/29 09:18:30;;;;;;;11.70;6.20;;;;;;;6.40;100.00;100674.44;7400747;19;20411;-48
2022/01/29 09:21:00;;;;;;;15.20;7.10;;;;;;;6.45;100.00;100663.63;7402981;19;20394;-51
2022/01/29 09:23:29;;;;;;;20.43;9.00;;;;;;;6.41;100.00;100655.69;7391287;19;20435;-49
2022/01/29 09:26:03;;;;;;;14.03;7.37;;;;;;;6.42;100.00;100644.63;7404004;19;20435;-53
2022/01/29 09:28:35;;;;;;;15.13;7.20;;;;;;;6.42;100.00;100658.31;7377591;19;20395;-49
2022/01/29 09:31:04;;;;;;;12.60;6.70;;;;;;;6.44;100.00;100635.34;7402663;19;20388;-53
2022/01/29 09:33:34;;;;;;;10.53;5.03;;;;;;;6.47;100.00;100650.91;7400396;19;20411;-52
2022/01/29 09:36:03;;;;;;;10.93;5.90;;;;;;;6.47;100.00;100640.66;7404816;19;20431;-49
2022/01/29 09:38:33;;;;;;;18.07;9.10;;;;;;;6.49;100.00;100636.50;7399631;19;20491;-51
2022/01/29 09:41:03;;;;;;;17.53;9.53;;;;;;;6.51;100.00;100637.44;7402150;19;20410;-49
2022/01/29 09:43:36;;;;;;;13.07;6.80;;;;;;;6.53;100.00;100640.09;7403424;19;20531;-52
2022/01/29 09:46:06;;;;;;;17.37;9.30;;;;;;;6.56;100.00;100635.16;7400799;19;20416;-50
2022/01/29 09:48:36;;;;;;;14.57;7.20;;;;;;;6.56;100.00;100625.78;7400356;19;20422;-48
2022/01/29 09:51:09;;;;;;;10.97;5.73;;;;;;;6.59;100.00;100632.75;7401733;19;20396;-50
2022/01/29 09:53:39;;;;;;;11.13;4.63;;;;;;;6.55;100.00;100618.91;7399822;19;20761;-54
2022/01/29 09:56:08;;;;;;;13.20;7.07;;;;;;;6.55;100.00;100597.50;7400519;19;20676;-49
2022/01/29 09:58:42;;;;;;;15.00;8.10;;;;;;;6.57;100.00;100612.16;7400025;19;20421;-52
2022/01/29 10:01:12;;;;;;;15.07;7.10;;;;;;;6.59;100.00;100604.56;7402685;19;20998;-52
2022/01/29 10:03:42;;;;;;;13.57;7.30;;;;;;;6.57;100.00;100595.91;7404556;19;20451;-50
2022/01/29 10:06:19;;;;;;;13.03;5.60;;;;;;;6.62;100.00;100600.47;7400187;19;20412;-51
2022/01/29 10:08:48;;;;;;;10.23;6.17;;;;;;;6.58;100.00;100598.56;7400632;19;20411;-55
2022/01/29 10:11:23;;;;;;;12.37;5.30;;;;;;;6.62;100.00;100605.63;7398842;19;20384;-50
2022/01/29 10:14:01;;;;;;;14.67;6.77;;;;;;;6.59;100.00;100569.56;7400929;19;20467;-51
2022/01/29 10:16:32;;;;;;;11.37;6.43;;;;;;;6.66;100.00;100580.16;7398986;19;20426;-51
2022/01/29 10:19:04;;;;;;;9.20;3.93;;;;;;;6.65;100.00;100566.44;7401057;19;20473;-54
2022/01/29 10:21:35;;;;;;;13.10;6.60;;;;;;;6.68;100.00;100558.03;7399431;19;20453;-51
2022/01/29 10:24:07;;;;;;;11.97;4.53;;;;;;;6.69;100.00;100542.75;7402065;19;20400;-54
2022/01/29 10:26:37;;;;;;;20.37;6.30;;;;;;;6.69;100.00;100536.72;7398349;19;20441;-55
2022/01/29 10:29:11;;;;;;;15.30;6.70;;;;;;;6.68;100.00;100543.56;7404434;19;20396;-50
2022/01/29 10:31:42;;;;;;;8.57;4.37;;;;;;;6.72;100.00;100534.34;7399109;19;20404;-50
2022/01/29 10:34:26;;;;;;;14.37;6.10;;;;;;;6.72;100.00;100537.75;7401073;19;20380;-50
2022/01/29 10:37:23;;;;;;;7.50;4.20;;;;;;;6.73;100.00;100520.72;7397353;19;20405;-50
2022/01/29 10:39:55;;;;;;;8.73;5.00;;;;;;;6.73;100.00;100516.44;7400312;19;20446;-49
2022/01/29 10:42:26;;;;;;;9.33;4.37;;;;;;;6.72;100.00;100506.13;7398693;19;20415;-48
2022/01/29 10:45:02;;;;;;;10.87;4.63;;;;;;;6.75;100.00;100496.91;7398759;19;20689;-51
2022/01/29 10:47:32;;;;;;;11.50;6.50;;;;;;;6.78;100.00;100493.63;7397423;19;20469;-50
2022/01/29 10:50:05;;;;;;;11.03;6.47;;;;;;;6.76;100.00;100477.28;7400414;19;20376;-49
2022/01/29 10:52:36;;;;;;;10.93;3.63;;;;;;;6.77;100.00;100480.72;7398341;19;20423;-53
2022/01/29 10:55:08;;;;;;;47.27;13.20;;;;;;;6.86;100.00;100459.00;7399184;19;20396;-50
2022/01/29 10:57:41;;;;;;;10.53;5.30;;;;;;;6.89;100.00;100460.84;7397684;19;20427;-50
2022/01/29 11:00:22;;;;;;;12.70;3.20;;;;;;;6.89;100.00;100451.47;7397723;19;20398;-53
2022/01/29 11:02:53;;;;;;;16.63;6.37;;;;;;;6.91;100.00;100448.13;7394797;19;20419;-52
2022/01/29 11:05:27;;;;;;;12.27;6.50;;;;;;;6.90;100.00;100426.72;7394708;19;20394;-56
2022/01/29 11:07:57;;;;;;;21.80;8.37;;;;;;;6.99;100.00;100405.78;7395258;19;20454;-52
2022/01/29 11:10:28;;;;;;;11.33;5.40;;;;;;;6.98;100.00;100398.91;7396978;19;20388;-49
2022/01/29 11:12:58;;;;;;;16.43;7.40;;;;;;;7.01;100.00;100396.47;7394850;19;20407;-49
2022/01/29 11:15:31;;;;;;;11.90;4.73;;;;;;;7.00;100.00;100402.41;7396755;19;20402;-51
2022/01/29 11:18:00;;;;;;;13.20;7.70;;;;;;;6.99;100.00;100408.34;7396135;19;21027;-54
2022/01/29 11:20:30;;;;;;;9.17;4.47;;;;;;;7.00;100.00;100394.72;7398698;19;20645;-52
2022/01/29 11:23:00;;;;;;;9.00;5.13;;;;;;;7.00;100.00;100379.31;7395278;19;20416;-50
2022/01/29 11:25:31;;;;;;;7.97;3.90;;;;;;;6.97;100.00;100392.88;7395406;19;20434;-55
2022/01/29 11:28:15;;;;;;;10.90;5.20;;;;;;;7.01;100.00;100373.38;7395534;19;20423;-50
2022/01/29 11:30:49;;;;;;;12.60;6.23;;;;;;;7.01;100.00;100355.41;7397976;19;20388;-53
2022/01/29 11:33:18;;;;;;;15.70;8.20;;;;;;;7.10;100.00;100357.56;7399251;19;20443;-50
2022/01/29 11:35:53;;;;;;;12.27;6.23;;;;;;;7.12;100.00;100331.19;7395520;19;20428;-54
2022/01/29 11:38:40;;;;;;;10.87;5.77;;;;;;;7.09;100.00;100366.97;7396118;19;20696;-51